sensor_id;sensor_type;location;lat;lon;timestamp;P1;durP1;ratioP1;P2;durP2;ratioP2
73951;SDS011;62304;47.662;18.324;2023-04-06T00:01:36;17.30;;;6.05;;
73951;SDS011;62304;47.662;18.324;2023-04-06T00:04:40;12.93;;;6.47;;
73951;SDS011;62304;47.662;18.324;2023-04-06T00:07:42;13.38;;;6.05;;
73951;SDS011;62304;47.662;18.324;2023-04-06T00:10:45;10.55;;;5.32;;
73951;SDS011;62304;47.662;18.324;2023-04-06T00:13:48;9.93;;;5.18;;
73951;SDS011;62304;47.662;18.324;2023-04-06T00:16:51;12.55;;;5.55;;
73951;SDS011;62304;47.662;18.324;2023-04-06T00:19:54;12.43;;;5.43;;
73951;SDS011;62304;47.662;18.324;2023-04-06T00:22:57;11.73;;;5.10;;
73951;SDS011;62304;47.662;18.324;2023-04-06T00:25:59;10.65;;;5.68;;
73951;SDS011;62304;47.662;18.324;2023-04-06T00:29:02;12.80;;;5.18;;
73951;SDS011;62304;47.662;18.324;2023-04-06T00:32:05;10.88;;;5.20;;
73951;SDS011;62304;47.662;18.324;2023-04-06T00:35:08;12.17;;;4.53;;
73951;SDS011;62304;47.662;18.324;2023-04-06T00:38:11;10.02;;;4.70;;
73951;SDS011;62304;47.662;18.324;2023-04-06T00:41:14;10.73;;;4.68;;
73951;SDS011;62304;47.662;18.324;2023-04-06T00:44:17;10.65;;;4.93;;
73951;SDS011;62304;47.662;18.324;2023-04-06T00:47:21;13.77;;;5.20;;
73951;SDS011;62304;47.662;18.324;2023-04-06T00:50:24;10.82;;;5.50;;
73951;SDS011;62304;47.662;18.324;2023-04-06T00:53:27;10.90;;;5.53;;
73951;SDS011;62304;47.662;18.324;2023-04-06T00:56:31;11.27;;;5.80;;
73951;SDS011;62304;47.662;18.324;2023-04-06T00:59:34;11.88;;;5.75;;
73951;SDS011;62304;47.662;18.324;2023-04-06T01:02:40;15.75;;;5.43;;
73951;SDS011;62304;47.662;18.324;2023-04-06T01:05:44;10.88;;;5.05;;
73951;SDS011;62304;47.662;18.324;2023-04-06T01:08:49;11.57;;;5.57;;
73951;SDS011;62304;47.662;18.324;2023-04-06T01:11:52;14.43;;;6.10;;
73951;SDS011;62304;47.662;18.324;2023-04-06T01:14:56;11.80;;;5.70;;
73951;SDS011;62304;47.662;18.324;2023-04-06T01:17:59;12.98;;;6.00;;
73951;SDS011;62304;47.662;18.324;2023-04-06T01:21:02;11.12;;;5.75;;
73951;SDS011;62304;47.662;18.324;2023-04-06T01:24:05;17.90;;;6.80;;
73951;SDS011;62304;47.662;18.324;2023-04-06T01:27:10;13.93;;;5.97;;
73951;SDS011;62304;47.662;18.324;2023-04-06T01:30:14;12.30;;;6.62;;
73951;SDS011;62304;47.662;18.324;2023-04-06T01:33:17;10.95;;;5.75;;
73951;SDS011;62304;47.662;18.324;2023-04-06T01:36:22;15.53;;;6.60;;
73951;SDS011;62304;47.662;18.324;2023-04-06T01:39:26;16.05;;;6.20;;
73951;SDS011;62304;47.662;18.324;2023-04-06T01:42:29;12.77;;;6.90;;
73951;SDS011;62304;47.662;18.324;2023-04-06T01:45:32;21.80;;;10.52;;
73951;SDS011;62304;47.662;18.324;2023-04-06T01:48:35;28.87;;;11.35;;
73951;SDS011;62304;47.662;18.324;2023-04-06T01:51:40;23.02;;;9.80;;
73951;SDS011;62304;47.662;18.324;2023-04-06T01:54:44;23.27;;;8.68;;
73951;SDS011;62304;47.662;18.324;2023-04-06T01:57:48;18.10;;;6.87;;
73951;SDS011;62304;47.662;18.324;2023-04-06T02:00:51;17.62;;;7.50;;
73951;SDS011;62304;47.662;18.324;2023-04-06T02:03:54;18.42;;;7.90;;
73951;SDS011;62304;47.662;18.324;2023-04-06T02:06:58;17.83;;;7.70;;
73951;SDS011;62304;47.662;18.324;2023-04-06T02:10:01;21.47;;;7.07;;
73951;SDS011;62304;47.662;18.324;2023-04-06T02:13:06;17.52;;;7.40;;
73951;SDS011;62304;47.662;18.324;2023-04-06T02:16:09;16.60;;;8.18;;
73951;SDS011;62304;47.662;18.324;2023-04-06T02:19:12;16.83;;;7.30;;
73951;SDS011;62304;47.662;18.324;2023-04-06T02:22:15;19.30;;;9.10;;
73951;SDS011;62304;47.662;18.324;2023-04-06T02:25:19;26.45;;;11.98;;
73951;SDS011;62304;47.662;18.324;2023-04-06T02:28:22;20.30;;;9.95;;
73951;SDS011;62304;47.662;18.324;2023-04-06T02:31:25;20.15;;;9.90;;
73951;SDS011;62304;47.662;18.324;2023-04-06T02:34:28;18.13;;;9.03;;
73951;SDS011;62304;47.662;18.324;2023-04-06T02:37:32;24.48;;;8.38;;
73951;SDS011;62304;47.662;18.324;2023-04-06T02:40:34;17.25;;;6.95;;
73951;SDS011;62304;47.662;18.324;2023-04-06T02:43:38;21.02;;;7.15;;
73951;SDS011;62304;47.662;18.324;2023-04-06T02:46:43;14.87;;;7.12;;
73951;SDS011;62304;47.662;18.324;2023-04-06T02:49:46;14.05;;;7.28;;
73951;SDS011;62304;47.662;18.324;2023-04-06T02:52:52;36.85;;;15.40;;
73951;SDS011;62304;47.662;18.324;2023-04-06T02:55:56;17.13;;;7.90;;
73951;SDS011;62304;47.662;18.324;2023-04-06T02:58:59;16.60;;;7.12;;
73951;SDS011;62304;47.662;18.324;2023-04-06T03:02:03;14.65;;;6.85;;
73951;SDS011;62304;47.662;18.324;2023-04-06T03:05:06;17.17;;;7.55;;
73951;SDS011;62304;47.662;18.324;2023-04-06T03:08:09;19.07;;;7.20;;
73951;SDS011;62304;47.662;18.324;2023-04-06T03:11:13;18.10;;;6.93;;
73951;SDS011;62304;47.662;18.324;2023-04-06T03:14:17;14.85;;;6.70;;
73951;SDS011;62304;47.662;18.324;2023-04-06T03:17:23;14.38;;;6.82;;
73951;SDS011;62304;47.662;18.324;2023-04-06T03:20:27;16.52;;;6.65;;
73951;SDS011;62304;47.662;18.324;2023-04-06T03:23:31;15.90;;;7.12;;
73951;SDS011;62304;47.662;18.324;2023-04-06T03:26:35;15.55;;;6.45;;
73951;SDS011;62304;47.662;18.324;2023-04-06T03:29:38;17.47;;;7.80;;
73951;SDS011;62304;47.662;18.324;2023-04-06T03:32:45;14.55;;;7.35;;
73951;SDS011;62304;47.662;18.324;2023-04-06T03:35:48;22.70;;;9.75;;
73951;SDS011;62304;47.662;18.324;2023-04-06T03:38:51;22.48;;;8.95;;
73951;SDS011;62304;47.662;18.324;2023-04-06T03:41:55;29.43;;;12.27;;
73951;SDS011;62304;47.662;18.324;2023-04-06T03:45:01;32.72;;;13.02;;
73951;SDS011;62304;47.662;18.324;2023-04-06T03:48:04;26.60;;;11.93;;
73951;SDS011;62304;47.662;18.324;2023-04-06T03:51:08;25.92;;;9.65;;
73951;SDS011;62304;47.662;18.324;2023-04-06T03:54:11;23.98;;;9.35;;
73951;SDS011;62304;47.662;18.324;2023-04-06T03:57:14;33.63;;;9.60;;
73951;SDS011;62304;47.662;18.324;2023-04-06T04:00:17;23.62;;;10.50;;
73951;SDS011;62304;47.662;18.324;2023-04-06T04:03:21;28.77;;;9.83;;
73951;SDS011;62304;47.662;18.324;2023-04-06T04:06:25;21.60;;;10.80;;
73951;SDS011;62304;47.662;18.324;2023-04-06T04:09:29;23.58;;;10.23;;
73951;SDS011;62304;47.662;18.324;2023-04-06T04:12:32;20.67;;;9.87;;
73951;SDS011;62304;47.662;18.324;2023-04-06T04:15:35;25.70;;;9.63;;
73951;SDS011;62304;47.662;18.324;2023-04-06T04:18:40;19.37;;;8.65;;
73951;SDS011;62304;47.662;18.324;2023-04-06T04:21:43;23.08;;;9.35;;
73951;SDS011;62304;47.662;18.324;2023-04-06T04:24:48;22.73;;;10.37;;
73951;SDS011;62304;47.662;18.324;2023-04-06T04:27:51;29.80;;;10.95;;
73951;SDS011;62304;47.662;18.324;2023-04-06T04:30:54;23.15;;;10.93;;
73951;SDS011;62304;47.662;18.324;2023-04-06T04:33:57;24.35;;;11.85;;
73951;SDS011;62304;47.662;18.324;2023-04-06T04:37:02;36.25;;;14.23;;
73951;SDS011;62304;47.662;18.324;2023-04-06T04:40:07;31.30;;;12.93;;
73951;SDS011;62304;47.662;18.324;2023-04-06T04:43:12;28.50;;;13.05;;
73951;SDS011;62304;47.662;18.324;2023-04-06T04:46:15;19.30;;;7.67;;
73951;SDS011;62304;47.662;18.324;2023-04-06T04:49:18;23.73;;;10.50;;
73951;SDS011;62304;47.662;18.324;2023-04-06T04:52:24;31.87;;;13.75;;
73951;SDS011;62304;47.662;18.324;2023-04-06T04:55:28;27.08;;;13.07;;
73951;SDS011;62304;47.662;18.324;2023-04-06T04:58:32;23.40;;;11.63;;
73951;SDS011;62304;47.662;18.324;2023-04-06T05:01:35;32.38;;;16.30;;
73951;SDS011;62304;47.662;18.324;2023-04-06T05:04:57;26.17;;;11.63;;
73951;SDS011;62304;47.662;18.324;2023-04-06T05:08:01;25.30;;;12.33;;
73951;SDS011;62304;47.662;18.324;2023-04-06T05:11:04;20.48;;;9.93;;
73951;SDS011;62304;47.662;18.324;2023-04-06T05:14:08;28.87;;;11.90;;
73951;SDS011;62304;47.662;18.324;2023-04-06T05:17:12;25.48;;;11.68;;
73951;SDS011;62304;47.662;18.324;2023-04-06T05:20:15;21.80;;;10.75;;
73951;SDS011;62304;47.662;18.324;2023-04-06T05:23:20;19.55;;;8.80;;
73951;SDS011;62304;47.662;18.324;2023-04-06T05:26:24;24.27;;;10.02;;
73951;SDS011;62304;47.662;18.324;2023-04-06T05:29:28;18.17;;;10.77;;
73951;SDS011;62304;47.662;18.324;2023-04-06T05:32:33;18.95;;;10.07;;
73951;SDS011;62304;47.662;18.324;2023-04-06T05:35:37;26.58;;;10.93;;
73951;SDS011;62304;47.662;18.324;2023-04-06T05:38:41;29.87;;;13.00;;
73951;SDS011;62304;47.662;18.324;2023-04-06T05:41:45;32.53;;;10.30;;
73951;SDS011;62304;47.662;18.324;2023-04-06T05:44:48;29.50;;;14.07;;
73951;SDS011;62304;47.662;18.324;2023-04-06T05:47:52;24.25;;;14.45;;
73951;SDS011;62304;47.662;18.324;2023-04-06T05:50:55;90.43;;;34.97;;
73951;SDS011;62304;47.662;18.324;2023-04-06T05:53:59;92.65;;;34.58;;
73951;SDS011;62304;47.662;18.324;2023-04-06T05:57:02;72.55;;;31.00;;
73951;SDS011;62304;47.662;18.324;2023-04-06T06:00:06;52.80;;;23.33;;
73951;SDS011;62304;47.662;18.324;2023-04-06T06:03:13;56.27;;;26.00;;
73951;SDS011;62304;47.662;18.324;2023-04-06T06:06:20;37.25;;;15.65;;
73951;SDS011;62304;47.662;18.324;2023-04-06T06:09:24;30.92;;;13.70;;
73951;SDS011;62304;47.662;18.324;2023-04-06T06:12:28;23.83;;;9.02;;
73951;SDS011;62304;47.662;18.324;2023-04-06T06:15:32;18.73;;;8.53;;
73951;SDS011;62304;47.662;18.324;2023-04-06T06:18:36;20.25;;;8.05;;
73951;SDS011;62304;47.662;18.324;2023-04-06T06:21:39;18.92;;;6.85;;
73951;SDS011;62304;47.662;18.324;2023-04-06T06:24:42;24.05;;;9.27;;
73951;SDS011;62304;47.662;18.324;2023-04-06T06:27:45;18.07;;;7.87;;
73951;SDS011;62304;47.662;18.324;2023-04-06T06:30:49;21.65;;;8.57;;
73951;SDS011;62304;47.662;18.324;2023-04-06T06:33:53;5.45;;;2.33;;
73951;SDS011;62304;47.662;18.324;2023-04-06T06:36:56;11.80;;;5.68;;
73951;SDS011;62304;47.662;18.324;2023-04-06T06:39:59;19.50;;;5.83;;
73951;SDS011;62304;47.662;18.324;2023-04-06T06:43:06;8.55;;;3.92;;
73951;SDS011;62304;47.662;18.324;2023-04-06T06:46:10;17.02;;;8.27;;
73951;SDS011;62304;47.662;18.324;2023-04-06T06:49:14;11.00;;;5.10;;
73951;SDS011;62304;47.662;18.324;2023-04-06T06:52:16;21.50;;;9.95;;
73951;SDS011;62304;47.662;18.324;2023-04-06T06:55:19;13.17;;;5.77;;
73951;SDS011;62304;47.662;18.324;2023-04-06T06:58:22;12.55;;;5.80;;
73951;SDS011;62304;47.662;18.324;2023-04-06T07:01:25;14.18;;;7.30;;
73951;SDS011;62304;47.662;18.324;2023-04-06T07:04:29;19.25;;;8.85;;
73951;SDS011;62304;47.662;18.324;2023-04-06T07:07:33;20.08;;;9.48;;
73951;SDS011;62304;47.662;18.324;2023-04-06T07:10:35;19.23;;;9.43;;
73951;SDS011;62304;47.662;18.324;2023-04-06T07:13:38;12.30;;;6.80;;
73951;SDS011;62304;47.662;18.324;2023-04-06T07:16:42;15.20;;;7.45;;
73951;SDS011;62304;47.662;18.324;2023-04-06T07:19:47;12.70;;;7.40;;
73951;SDS011;62304;47.662;18.324;2023-04-06T07:22:50;16.15;;;8.23;;
73951;SDS011;62304;47.662;18.324;2023-04-06T07:25:53;14.47;;;7.43;;
73951;SDS011;62304;47.662;18.324;2023-04-06T07:28:56;14.33;;;7.47;;
73951;SDS011;62304;47.662;18.324;2023-04-06T07:32:00;14.48;;;7.22;;
73951;SDS011;62304;47.662;18.324;2023-04-06T07:35:04;17.17;;;8.02;;
73951;SDS011;62304;47.662;18.324;2023-04-06T07:38:08;15.05;;;8.13;;
73951;SDS011;62304;47.662;18.324;2023-04-06T07:41:10;14.93;;;7.50;;
73951;SDS011;62304;47.662;18.324;2023-04-06T07:44:14;16.37;;;5.63;;
73951;SDS011;62304;47.662;18.324;2023-04-06T07:47:17;10.45;;;6.15;;
73951;SDS011;62304;47.662;18.324;2023-04-06T07:50:20;16.20;;;7.22;;
73951;SDS011;62304;47.662;18.324;2023-04-06T07:53:24;17.27;;;6.20;;
73951;SDS011;62304;47.662;18.324;2023-04-06T07:56:27;15.50;;;7.07;;
73951;SDS011;62304;47.662;18.324;2023-04-06T07:59:29;16.50;;;8.60;;
73951;SDS011;62304;47.662;18.324;2023-04-06T08:02:33;20.62;;;8.00;;
73951;SDS011;62304;47.662;18.324;2023-04-06T08:05:36;16.50;;;7.35;;
73951;SDS011;62304;47.662;18.324;2023-04-06T08:08:39;16.27;;;6.03;;
73951;SDS011;62304;47.662;18.324;2023-04-06T08:11:42;11.97;;;6.67;;
73951;SDS011;62304;47.662;18.324;2023-04-06T08:14:47;15.33;;;8.60;;
73951;SDS011;62304;47.662;18.324;2023-04-06T08:17:50;17.70;;;7.15;;
73951;SDS011;62304;47.662;18.324;2023-04-06T08:20:54;10.40;;;6.05;;
73951;SDS011;62304;47.662;18.324;2023-04-06T08:23:57;14.35;;;7.32;;
73951;SDS011;62304;47.662;18.324;2023-04-06T08:27:00;15.10;;;6.67;;
73951;SDS011;62304;47.662;18.324;2023-04-06T08:30:03;15.23;;;7.33;;
73951;SDS011;62304;47.662;18.324;2023-04-06T08:33:06;12.05;;;6.20;;
73951;SDS011;62304;47.662;18.324;2023-04-06T08:36:09;15.38;;;9.00;;
73951;SDS011;62304;47.662;18.324;2023-04-06T08:39:13;16.98;;;6.97;;
73951;SDS011;62304;47.662;18.324;2023-04-06T08:42:18;13.03;;;7.43;;
73951;SDS011;62304;47.662;18.324;2023-04-06T08:45:22;12.43;;;6.70;;
73951;SDS011;62304;47.662;18.324;2023-04-06T08:48:25;14.00;;;6.85;;
73951;SDS011;62304;47.662;18.324;2023-04-06T08:51:29;12.37;;;5.90;;
73951;SDS011;62304;47.662;18.324;2023-04-06T08:54:34;12.05;;;5.28;;
73951;SDS011;62304;47.662;18.324;2023-04-06T08:57:37;10.03;;;4.43;;
73951;SDS011;62304;47.662;18.324;2023-04-06T09:00:40;17.07;;;4.83;;
73951;SDS011;62304;47.662;18.324;2023-04-06T09:03:43;8.57;;;4.10;;
73951;SDS011;62304;47.662;18.324;2023-04-06T09:06:49;17.58;;;6.82;;
73951;SDS011;62304;47.662;18.324;2023-04-06T09:09:52;13.23;;;3.87;;
73951;SDS011;62304;47.662;18.324;2023-04-06T09:13:05;8.13;;;5.27;;
73951;SDS011;62304;47.662;18.324;2023-04-06T09:16:08;12.73;;;5.13;;
73951;SDS011;62304;47.662;18.324;2023-04-06T09:19:11;10.38;;;4.80;;
73951;SDS011;62304;47.662;18.324;2023-04-06T09:22:15;17.15;;;5.60;;
73951;SDS011;62304;47.662;18.324;2023-04-06T09:25:19;18.35;;;7.18;;
73951;SDS011;62304;47.662;18.324;2023-04-06T09:28:23;14.57;;;5.97;;
73951;SDS011;62304;47.662;18.324;2023-04-06T09:31:27;21.47;;;7.03;;
73951;SDS011;62304;47.662;18.324;2023-04-06T09:34:31;11.18;;;5.43;;
73951;SDS011;62304;47.662;18.324;2023-04-06T09:37:36;11.88;;;6.07;;
73951;SDS011;62304;47.662;18.324;2023-04-06T09:40:47;9.48;;;5.47;;
73951;SDS011;62304;47.662;18.324;2023-04-06T09:47:05;14.67;;;5.37;;
73951;SDS011;62304;47.662;18.324;2023-04-06T09:50:11;13.90;;;5.90;;
73951;SDS011;62304;47.662;18.324;2023-04-06T09:53:15;12.40;;;5.22;;
73951;SDS011;62304;47.662;18.324;2023-04-06T09:56:23;18.37;;;6.55;;
73951;SDS011;62304;47.662;18.324;2023-04-06T10:03:04;13.53;;;5.80;;
73951;SDS011;62304;47.662;18.324;2023-04-06T10:06:23;13.77;;;6.68;;
73951;SDS011;62304;47.662;18.324;2023-04-06T10:09:29;13.05;;;6.60;;
73951;SDS011;62304;47.662;18.324;2023-04-06T10:12:38;14.02;;;5.82;;
73951;SDS011;62304;47.662;18.324;2023-04-06T10:15:42;13.17;;;6.00;;
73951;SDS011;62304;47.662;18.324;2023-04-06T10:18:47;12.53;;;6.63;;
73951;SDS011;62304;47.662;18.324;2023-04-06T10:21:56;14.20;;;6.07;;
73951;SDS011;62304;47.662;18.324;2023-04-06T10:25:04;11.05;;;6.28;;
73951;SDS011;62304;47.662;18.324;2023-04-06T10:28:08;14.63;;;6.97;;
73951;SDS011;62304;47.662;18.324;2023-04-06T10:31:13;10.60;;;4.77;;
73951;SDS011;62304;47.662;18.324;2023-04-06T10:34:16;13.07;;;6.40;;
73951;SDS011;62304;47.662;18.324;2023-04-06T10:37:19;16.73;;;7.43;;
73951;SDS011;62304;47.662;18.324;2023-04-06T10:40:24;11.80;;;5.70;;
73951;SDS011;62304;47.662;18.324;2023-04-06T10:43:32;15.85;;;9.23;;
73951;SDS011;62304;47.662;18.324;2023-04-06T10:46:37;13.80;;;7.00;;
73951;SDS011;62304;47.662;18.324;2023-04-06T10:49:43;15.50;;;7.43;;
73951;SDS011;62304;47.662;18.324;2023-04-06T10:52:46;11.98;;;7.12;;
73951;SDS011;62304;47.662;18.324;2023-04-06T10:55:50;10.60;;;5.35;;
73951;SDS011;62304;47.662;18.324;2023-04-06T10:58:54;13.90;;;7.40;;
73951;SDS011;62304;47.662;18.324;2023-04-06T11:01:58;13.03;;;8.10;;
73951;SDS011;62304;47.662;18.324;2023-04-06T11:05:02;15.50;;;9.30;;
73951;SDS011;62304;47.662;18.324;2023-04-06T11:08:05;16.20;;;8.30;;
73951;SDS011;62304;47.662;18.324;2023-04-06T11:11:10;13.40;;;6.72;;
73951;SDS011;62304;47.662;18.324;2023-04-06T11:14:18;13.68;;;7.65;;
73951;SDS011;62304;47.662;18.324;2023-04-06T11:17:27;17.77;;;8.03;;
73951;SDS011;62304;47.662;18.324;2023-04-06T11:20:31;12.87;;;7.97;;
73951;SDS011;62304;47.662;18.324;2023-04-06T11:23:34;14.68;;;7.82;;
73951;SDS011;62304;47.662;18.324;2023-04-06T11:26:41;13.77;;;8.55;;
73951;SDS011;62304;47.662;18.324;2023-04-06T11:29:46;16.52;;;9.00;;
73951;SDS011;62304;47.662;18.324;2023-04-06T11:32:49;14.30;;;7.37;;
73951;SDS011;62304;47.662;18.324;2023-04-06T11:35:56;17.97;;;10.10;;
73951;SDS011;62304;47.662;18.324;2023-04-06T11:39:00;17.83;;;8.35;;
73951;SDS011;62304;47.662;18.324;2023-04-06T11:42:02;18.70;;;9.15;;
73951;SDS011;62304;47.662;18.324;2023-04-06T11:45:10;18.15;;;9.55;;
73951;SDS011;62304;47.662;18.324;2023-04-06T11:48:18;12.57;;;7.67;;
73951;SDS011;62304;47.662;18.324;2023-04-06T11:51:22;15.23;;;8.00;;
73951;SDS011;62304;47.662;18.324;2023-04-06T11:54:32;12.48;;;7.05;;
73951;SDS011;62304;47.662;18.324;2023-04-06T11:57:36;15.40;;;6.93;;
73951;SDS011;62304;47.662;18.324;2023-04-06T12:00:39;12.70;;;6.85;;
73951;SDS011;62304;47.662;18.324;2023-04-06T12:03:49;15.60;;;9.00;;
73951;SDS011;62304;47.662;18.324;2023-04-06T12:06:53;13.00;;;7.03;;
73951;SDS011;62304;47.662;18.324;2023-04-06T12:09:56;18.40;;;8.18;;
73951;SDS011;62304;47.662;18.324;2023-04-06T12:13:00;15.73;;;8.45;;
73951;SDS011;62304;47.662;18.324;2023-04-06T12:16:03;12.07;;;7.37;;
73951;SDS011;62304;47.662;18.324;2023-04-06T12:19:06;17.30;;;8.17;;
73951;SDS011;62304;47.662;18.324;2023-04-06T12:22:09;14.63;;;7.03;;
73951;SDS011;62304;47.662;18.324;2023-04-06T12:25:12;12.05;;;6.95;;
73951;SDS011;62304;47.662;18.324;2023-04-06T12:28:15;15.32;;;7.12;;
73951;SDS011;62304;47.662;18.324;2023-04-06T12:31:18;11.25;;;6.80;;
73951;SDS011;62304;47.662;18.324;2023-04-06T12:34:22;17.27;;;8.37;;
73951;SDS011;62304;47.662;18.324;2023-04-06T12:37:26;12.40;;;7.10;;
73951;SDS011;62304;47.662;18.324;2023-04-06T12:40:29;20.48;;;8.52;;
73951;SDS011;62304;47.662;18.324;2023-04-06T12:43:32;14.32;;;7.05;;
73951;SDS011;62304;47.662;18.324;2023-04-06T12:46:34;12.82;;;6.18;;
73951;SDS011;62304;47.662;18.324;2023-04-06T12:49:39;14.53;;;5.70;;
73951;SDS011;62304;47.662;18.324;2023-04-06T12:52:42;13.17;;;6.73;;
73951;SDS011;62304;47.662;18.324;2023-04-06T12:55:44;15.52;;;6.90;;
73951;SDS011;62304;47.662;18.324;2023-04-06T12:58:48;16.30;;;7.25;;
73951;SDS011;62304;47.662;18.324;2023-04-06T13:01:53;17.50;;;7.72;;
73951;SDS011;62304;47.662;18.324;2023-04-06T13:04:56;13.70;;;6.53;;
73951;SDS011;62304;47.662;18.324;2023-04-06T13:07:59;13.97;;;6.97;;
73951;SDS011;62304;47.662;18.324;2023-04-06T13:11:01;15.75;;;7.32;;
73951;SDS011;62304;47.662;18.324;2023-04-06T13:14:04;11.93;;;6.90;;
73951;SDS011;62304;47.662;18.324;2023-04-06T13:17:08;14.60;;;6.65;;
73951;SDS011;62304;47.662;18.324;2023-04-06T13:20:11;10.10;;;5.70;;
73951;SDS011;62304;47.662;18.324;2023-04-06T13:23:14;12.47;;;6.13;;
73951;SDS011;62304;47.662;18.324;2023-04-06T13:26:18;14.32;;;7.22;;
73951;SDS011;62304;47.662;18.324;2023-04-06T13:29:20;12.35;;;5.05;;
73951;SDS011;62304;47.662;18.324;2023-04-06T13:32:23;10.43;;;4.93;;
73951;SDS011;62304;47.662;18.324;2023-04-06T13:35:26;9.87;;;5.80;;
73951;SDS011;62304;47.662;18.324;2023-04-06T13:38:29;9.20;;;5.13;;
73951;SDS011;62304;47.662;18.324;2023-04-06T13:41:32;14.70;;;6.80;;
73951;SDS011;62304;47.662;18.324;2023-04-06T13:44:34;12.63;;;6.90;;
73951;SDS011;62304;47.662;18.324;2023-04-06T13:47:37;10.93;;;5.60;;
73951;SDS011;62304;47.662;18.324;2023-04-06T13:50:40;9.73;;;5.33;;
73951;SDS011;62304;47.662;18.324;2023-04-06T13:53:44;11.33;;;4.87;;
73951;SDS011;62304;47.662;18.324;2023-04-06T13:56:47;10.95;;;5.85;;
73951;SDS011;62304;47.662;18.324;2023-04-06T13:59:50;11.88;;;5.43;;
73951;SDS011;62304;47.662;18.324;2023-04-06T14:02:53;12.30;;;5.53;;
73951;SDS011;62304;47.662;18.324;2023-04-06T14:05:58;9.40;;;5.13;;
73951;SDS011;62304;47.662;18.324;2023-04-06T14:09:11;13.13;;;5.80;;
73951;SDS011;62304;47.662;18.324;2023-04-06T14:12:14;14.25;;;6.37;;
73951;SDS011;62304;47.662;18.324;2023-04-06T14:15:16;15.65;;;6.22;;
73951;SDS011;62304;47.662;18.324;2023-04-06T14:18:20;12.65;;;6.55;;
73951;SDS011;62304;47.662;18.324;2023-04-06T14:21:24;12.10;;;5.77;;
73951;SDS011;62304;47.662;18.324;2023-04-06T14:24:28;12.77;;;6.20;;
73951;SDS011;62304;47.662;18.324;2023-04-06T14:27:32;12.63;;;6.70;;
73951;SDS011;62304;47.662;18.324;2023-04-06T14:30:34;13.18;;;6.65;;
73951;SDS011;62304;47.662;18.324;2023-04-06T14:33:37;12.52;;;5.90;;
73951;SDS011;62304;47.662;18.324;2023-04-06T14:36:40;9.17;;;5.30;;
73951;SDS011;62304;47.662;18.324;2023-04-06T14:39:44;10.47;;;5.60;;
73951;SDS011;62304;47.662;18.324;2023-04-06T14:42:46;12.77;;;6.62;;
73951;SDS011;62304;47.662;18.324;2023-04-06T14:45:49;12.18;;;6.55;;
73951;SDS011;62304;47.662;18.324;2023-04-06T14:48:56;12.30;;;6.65;;
73951;SDS011;62304;47.662;18.324;2023-04-06T14:52:00;17.73;;;7.53;;
73951;SDS011;62304;47.662;18.324;2023-04-06T14:55:03;15.40;;;7.80;;
73951;SDS011;62304;47.662;18.324;2023-04-06T14:58:06;14.90;;;6.82;;
73951;SDS011;62304;47.662;18.324;2023-04-06T15:01:09;12.40;;;7.12;;
73951;SDS011;62304;47.662;18.324;2023-04-06T15:04:12;13.65;;;6.82;;
73951;SDS011;62304;47.662;18.324;2023-04-06T15:07:16;10.93;;;6.17;;
73951;SDS011;62304;47.662;18.324;2023-04-06T15:10:19;13.83;;;7.63;;
73951;SDS011;62304;47.662;18.324;2023-04-06T15:13:21;14.13;;;7.43;;
73951;SDS011;62304;47.662;18.324;2023-04-06T15:16:24;16.90;;;7.62;;
73951;SDS011;62304;47.662;18.324;2023-04-06T15:19:27;14.02;;;7.50;;
73951;SDS011;62304;47.662;18.324;2023-04-06T15:22:30;15.37;;;7.53;;
73951;SDS011;62304;47.662;18.324;2023-04-06T15:25:34;15.23;;;7.63;;
73951;SDS011;62304;47.662;18.324;2023-04-06T15:28:37;12.93;;;6.22;;
73951;SDS011;62304;47.662;18.324;2023-04-06T15:31:40;14.87;;;7.32;;
73951;SDS011;62304;47.662;18.324;2023-04-06T15:34:42;11.80;;;6.10;;
73951;SDS011;62304;47.662;18.324;2023-04-06T15:37:45;16.70;;;8.13;;
73951;SDS011;62304;47.662;18.324;2023-04-06T15:40:48;16.03;;;7.83;;
73951;SDS011;62304;47.662;18.324;2023-04-06T15:43:52;16.80;;;7.85;;
73951;SDS011;62304;47.662;18.324;2023-04-06T15:46:55;13.43;;;6.55;;
73951;SDS011;62304;47.662;18.324;2023-04-06T15:49:58;17.20;;;8.25;;
73951;SDS011;62304;47.662;18.324;2023-04-06T15:53:01;14.60;;;6.40;;
73951;SDS011;62304;47.662;18.324;2023-04-06T15:56:04;19.77;;;8.70;;
73951;SDS011;62304;47.662;18.324;2023-04-06T15:59:09;15.35;;;8.27;;
73951;SDS011;62304;47.662;18.324;2023-04-06T16:02:12;15.23;;;7.57;;
73951;SDS011;62304;47.662;18.324;2023-04-06T16:05:16;13.52;;;6.93;;
73951;SDS011;62304;47.662;18.324;2023-04-06T16:08:18;12.10;;;5.03;;
73951;SDS011;62304;47.662;18.324;2023-04-06T16:11:22;13.97;;;7.27;;
73951;SDS011;62304;47.662;18.324;2023-04-06T16:14:24;14.60;;;7.65;;
73951;SDS011;62304;47.662;18.324;2023-04-06T16:17:27;17.90;;;8.73;;
73951;SDS011;62304;47.662;18.324;2023-04-06T16:20:30;14.13;;;7.50;;
73951;SDS011;62304;47.662;18.324;2023-04-06T16:23:33;14.63;;;7.07;;
73951;SDS011;62304;47.662;18.324;2023-04-06T16:26:36;16.33;;;8.27;;
73951;SDS011;62304;47.662;18.324;2023-04-06T16:29:39;19.25;;;9.07;;
73951;SDS011;62304;47.662;18.324;2023-04-06T16:32:42;18.90;;;8.88;;
73951;SDS011;62304;47.662;18.324;2023-04-06T16:35:48;15.18;;;8.68;;
73951;SDS011;62304;47.662;18.324;2023-04-06T16:38:50;16.03;;;7.23;;
73951;SDS011;62304;47.662;18.324;2023-04-06T16:41:53;18.70;;;9.20;;
73951;SDS011;62304;47.662;18.324;2023-04-06T16:44:57;17.58;;;7.95;;
73951;SDS011;62304;47.662;18.324;2023-04-06T16:48:00;18.27;;;9.57;;
73951;SDS011;62304;47.662;18.324;2023-04-06T16:51:05;18.10;;;8.93;;
73951;SDS011;62304;47.662;18.324;2023-04-06T16:54:09;15.47;;;8.30;;
73951;SDS011;62304;47.662;18.324;2023-04-06T16:57:12;15.50;;;8.60;;
73951;SDS011;62304;47.662;18.324;2023-04-06T17:00:17;15.60;;;8.98;;
73951;SDS011;62304;47.662;18.324;2023-04-06T17:03:19;18.83;;;9.07;;
73951;SDS011;62304;47.662;18.324;2023-04-06T17:06:23;20.02;;;9.80;;
73951;SDS011;62304;47.662;18.324;2023-04-06T17:09:28;16.37;;;8.47;;
73951;SDS011;62304;47.662;18.324;2023-04-06T17:12:37;14.00;;;6.47;;
73951;SDS011;62304;47.662;18.324;2023-04-06T17:15:40;15.60;;;8.38;;
73951;SDS011;62304;47.662;18.324;2023-04-06T17:18:44;14.73;;;7.28;;
73951;SDS011;62304;47.662;18.324;2023-04-06T17:21:47;17.02;;;8.95;;
73951;SDS011;62304;47.662;18.324;2023-04-06T17:24:50;12.90;;;8.00;;
73951;SDS011;62304;47.662;18.324;2023-04-06T17:27:52;14.33;;;7.63;;
73951;SDS011;62304;47.662;18.324;2023-04-06T17:30:56;15.35;;;8.27;;
73951;SDS011;62304;47.662;18.324;2023-04-06T17:33:59;19.30;;;10.38;;
73951;SDS011;62304;47.662;18.324;2023-04-06T17:37:02;24.35;;;11.23;;
73951;SDS011;62304;47.662;18.324;2023-04-06T17:40:05;21.07;;;9.90;;
73951;SDS011;62304;47.662;18.324;2023-04-06T17:43:09;12.57;;;7.37;;
73951;SDS011;62304;47.662;18.324;2023-04-06T17:46:12;17.80;;;9.30;;
73951;SDS011;62304;47.662;18.324;2023-04-06T17:49:15;12.20;;;7.60;;
73951;SDS011;62304;47.662;18.324;2023-04-06T17:52:18;13.77;;;8.88;;
73951;SDS011;62304;47.662;18.324;2023-04-06T17:55:21;13.33;;;7.03;;
73951;SDS011;62304;47.662;18.324;2023-04-06T17:58:24;14.77;;;6.23;;
73951;SDS011;62304;47.662;18.324;2023-04-06T18:01:27;10.57;;;5.93;;